Time;durP1;ratioP1;P1;durP2;ratioP2;P2;SDS_P1;SDS_P2;PMS_P1;PMS_P2;Temp;Humidity;BMP_temperature;BMP_pressure;BME280_temperature;BME280_humidity;BME280_pressure;Samples;Min_cycle;Max_cycle;Signal;HPM_P1;HPM_P2
2022/06/14 00:03:18;;;;;;;0.47;0.47;;;;;;;;;;4917260;29;20268;-86
2022/06/14 00:05:47;;;;;;;0.40;0.40;;;;;;;;;;4932943;29;20250;-87
2022/06/14 00:08:16;;;;;;;1.03;0.93;;;;;;;;;;4934639;29;20235;-87
2022/06/14 00:10:45;;;;;;;2.57;1.60;;;;;;;;;;4923663;29;20216;-86
2022/06/14 00:13:13;;;;;;;3.80;1.70;;;;;;;;;;4916931;29;20206;-87
2022/06/14 00:15:44;;;;;;;0.50;0.50;;;;;;;;;;4917337;29;20212;-87
2022/06/14 00:18:12;;;;;;;2.03;1.40;;;;;;;;;;4931572;29;20224;-87
2022/06/14 00:20:42;;;;;;;0.40;0.40;;;;;;;;;;4918718;29;20213;-87
2022/06/14 00:23:11;;;;;;;2.20;1.30;;;;;;;;;;4927702;29;20216;-88
2022/06/14 00:25:41;;;;;;;3.23;1.57;;;;;;;;;;4940002;29;20236;-88
2022/06/14 00:28:12;;;;;;;1.80;0.87;;;;;;;;;;4945152;28;20266;-89
2022/06/14 00:30:41;;;;;;;0.60;0.60;;;;;;;;;;4927726;29;20206;-87
2022/06/14 00:33:10;;;;;;;0.93;0.93;;;;;;;;;;4934314;29;20281;-89
2022/06/14 00:35:38;;;;;;;0.60;0.60;;;;;;;;;;4917876;29;20212;-88
2022/06/14 00:38:08;;;;;;;0.43;0.43;;;;;;;;;;4925426;29;20217;-87
2022/06/14 00:40:38;;;;;;;0.50;0.50;;;;;;;;;;4935627;29;20209;-88
2022/06/14 00:43:13;;;;;;;2.57;1.37;;;;;;;;;;4919313;28;20261;-89
2022/06/14 00:46:00;;;;;;;1.80;1.27;;;;;;;;;;4918119;29;20232;-88
2022/06/14 00:48:29;;;;;;;2.23;1.03;;;;;;;;;;4919266;29;20207;-88
2022/06/14 00:51:01;;;;;;;1.07;1.07;;;;;;;;;;4917238;29;20218;-88
2022/06/14 00:53:32;;;;;;;0.50;0.50;;;;;;;;;;4921945;29;20224;-88
2022/06/14 00:56:02;;;;;;;0.40;0.40;;;;;;;;;;4915956;29;20208;-88
2022/06/14 00:58:34;;;;;;;1.00;1.00;;;;;;;;;;4915768;29;20734;-87
2022/06/14 01:01:03;;;;;;;0.50;0.50;;;;;;;;;;4935254;29;20307;-88
2022/06/14 01:03:39;;;;;;;0.67;0.67;;;;;;;;;;4919094;29;20216;-88
2022/06/14 01:06:13;;;;;;;0.50;0.50;;;;;;;;;;4916170;29;20227;-89
2022/06/14 01:08:47;;;;;;;0.40;0.40;;;;;;;;;;4916604;29;20222;-89
2022/06/14 01:11:20;;;;;;;0.40;0.40;;;;;;;;;;4947004;28;20209;-88
2022/06/14 01:13:48;;;;;;;1.70;1.63;;;;;;;;;;4915076;29;20206;-88
2022/06/14 01:16:17;;;;;;;0.40;0.40;;;;;;;;;;4916781;29;20206;-88
2022/06/14 01:18:45;;;;;;;1.70;1.70;;;;;;;;;;4913177;29;20205;-88
2022/06/14 01:21:15;;;;;;;0.40;0.40;;;;;;;;;;4916062;29;20211;-87
2022/06/14 01:23:45;;;;;;;0.47;0.47;;;;;;;;;;4938158;29;20205;-88
2022/06/14 01:26:16;;;;;;;0.50;0.50;;;;;;;;;;4918880;29;20251;-87
2022/06/14 01:28:46;;;;;;;0.50;0.50;;;;;;;;;;4936742;29;20209;-87
2022/06/14 01:31:15;;;;;;;0.70;0.70;;;;;;;;;;4946066;28;20213;-88
2022/06/14 01:33:45;;;;;;;1.70;0.97;;;;;;;;;;4931635;29;20209;-88
2022/06/14 01:36:16;;;;;;;0.50;0.50;;;;;;;;;;4914980;29;20206;-87
2022/06/14 01:38:47;;;;;;;0.40;0.40;;;;;;;;;;4910688;29;20217;-88
2022/06/14 01:41:23;;;;;;;0.70;0.70;;;;;;;;;;4941510;28;20228;-88
2022/06/14 01:43:56;;;;;;;0.50;0.50;;;;;;;;;;4948069;28;20228;-87
2022/06/14 01:46:26;;;;;;;1.37;1.37;;;;;;;;;;4918336;29;20232;-88
2022/06/14 01:51:50;;;;;;;0.40;0.40;;;;;;;;;;4919604;29;20200;-88
2022/06/14 01:51:54;;;;;;;0.40;0.40;;;;;;;;;;4912484;29;20220;-88
2022/06/14 01:54:29;;;;;;;0.60;0.60;;;;;;;;;;4937774;29;20247;-88
2022/06/14 01:57:04;;;;;;;0.50;0.50;;;;;;;;;;4966030;28;20294;-89
2022/06/14 01:59:40;;;;;;;0.50;0.50;;;;;;;;;;4934891;29;20209;-88
2022/06/14 02:02:11;;;;;;;0.73;0.73;;;;;;;;;;4935181;29;20288;-87
2022/06/14 02:04:42;;;;;;;1.97;1.80;;;;;;;;;;4933896;28;20291;-87
2022/06/14 02:07:20;;;;;;;1.23;1.23;;;;;;;;;;4934960;28;20223;-88
2022/06/14 02:09:55;;;;;;;0.83;0.83;;;;;;;;;;4938268;28;20223;-89
2022/06/14 02:12:28;;;;;;;0.70;0.70;;;;;;;;;;4948883;28;20705;-89
2022/06/14 02:15:00;;;;;;;0.40;0.40;;;;;;;;;;4933775;29;20203;-88
2022/06/14 02:17:33;;;;;;;0.83;0.83;;;;;;;;;;4929879;29;20286;-88
2022/06/14 02:20:02;;;;;;;2.87;2.07;;;;;;;;;;4934338;29;20212;-88
2022/06/14 02:22:33;;;;;;;1.37;1.23;;;;;;;;;;4955660;28;20261;-88
2022/06/14 02:25:06;;;;;;;0.70;0.70;;;;;;;;;;4950935;28;20226;-88
2022/06/14 02:27:36;;;;;;;0.97;0.97;;;;;;;;;;4933782;28;20249;-88
2022/06/14 02:30:07;;;;;;;0.87;0.87;;;;;;;;;;4934178;28;20216;-89
2022/06/14 02:32:37;;;;;;;0.50;0.50;;;;;;;;;;4947329;28;20215;-88
2022/06/14 02:35:08;;;;;;;0.60;0.60;;;;;;;;;;4961588;28;20206;-88
2022/06/14 02:37:39;;;;;;;0.70;0.70;;;;;;;;;;4957622;28;20221;-88
2022/06/14 02:40:11;;;;;;;0.50;0.50;;;;;;;;;;4957707;28;20216;-88
2022/06/14 02:42:43;;;;;;;0.80;0.80;;;;;;;;;;4947835;28;20218;-87
2022/06/14 02:45:14;;;;;;;0.40;0.40;;;;;;;;;;4934671;28;20218;-87
2022/06/14 02:47:45;;;;;;;0.50;0.50;;;;;;;;;;4952880;28;20282;-88
2022/06/14 02:50:16;;;;;;;0.90;0.90;;;;;;;;;;4933863;28;20254;-88
2022/06/14 02:52:47;;;;;;;1.00;1.00;;;;;;;;;;4965632;28;20218;-88
2022/06/14 02:55:19;;;;;;;1.00;1.00;;;;;;;;;;4923329;29;20267;-88
2022/06/14 02:57:50;;;;;;;0.50;0.50;;;;;;;;;;4914133;29;20266;-88
2022/06/14 03:00:20;;;;;;;0.50;0.50;;;;;;;;;;4914480;29;20211;-88
2022/06/14 03:02:51;;;;;;;0.57;0.57;;;;;;;;;;4914706;29;20214;-89
2022/06/14 03:05:23;;;;;;;0.50;0.50;;;;;;;;;;4915578;29;20224;-88
2022/06/14 03:07:54;;;;;;;0.50;0.50;;;;;;;;;;4908053;29;20202;-88
2022/06/14 03:10:25;;;;;;;0.50;0.50;;;;;;;;;;4928631;29;20322;-88
2022/06/14 03:13:03;;;;;;;0.60;0.60;;;;;;;;;;4945695;28;20243;-87
2022/06/14 03:15:35;;;;;;;0.50;0.50;;;;;;;;;;4918705;29;20213;-88
2022/06/14 03:18:09;;;;;;;0.47;0.47;;;;;;;;;;4930392;29;20292;-88
2022/06/14 03:20:45;;;;;;;0.60;0.60;;;;;;;;;;4912408;29;20208;-88
2022/06/14 03:23:17;;;;;;;0.50;0.50;;;;;;;;;;4930762;29;20218;-88
2022/06/14 03:25:50;;;;;;;1.27;1.17;;;;;;;;;;4945156;28;20234;-88
2022/06/14 03:28:22;;;;;;;2.27;1.70;;;;;;;;;;4917887;29;20220;-88
2022/06/14 03:30:53;;;;;;;0.67;0.67;;;;;;;;;;4922980;29;20207;-88
2022/06/14 03:33:25;;;;;;;0.50;0.50;;;;;;;;;;4929862;29;20208;-89
2022/06/14 03:35:55;;;;;;;0.63;0.63;;;;;;;;;;4937881;29;20207;-88
2022/06/14 03:38:27;;;;;;;3.10;2.40;;;;;;;;;;4914448;29;20203;-88
2022/06/14 03:40:56;;;;;;;2.60;2.40;;;;;;;;;;4945567;28;20220;-89
2022/06/14 03:43:25;;;;;;;1.60;1.50;;;;;;;;;;4945922;28;20226;-88
2022/06/14 03:45:57;;;;;;;4.30;2.10;;;;;;;;;;4929502;29;20223;-88
2022/06/14 03:48:25;;;;;;;8.50;2.60;;;;;;;;;;4949700;28;20202;-89
2022/06/14 03:51:01;;;;;;;2.23;1.73;;;;;;;;;;4914469;29;20204;-89
2022/06/14 03:53:35;;;;;;;1.23;1.20;;;;;;;;;;4913756;29;20218;-89
2022/06/14 03:56:21;;;;;;;1.27;1.20;;;;;;;;;;4925997;29;20285;-89
2022/06/14 03:58:58;;;;;;;0.40;0.40;;;;;;;;;;4941003;29;20214;-89
2022/06/14 04:01:29;;;;;;;0.77;0.77;;;;;;;;;;4926079;29;20282;-89
2022/06/14 04:04:07;;;;;;;2.30;1.67;;;;;;;;;;4930077;29;20216;-89
2022/06/14 04:06:45;;;;;;;2.97;2.20;;;;;;;;;;4933002;29;20214;-89
2022/06/14 04:09:19;;;;;;;1.33;1.20;;;;;;;;;;4925154;29;20234;-89
2022/06/14 04:11:52;;;;;;;5.77;1.70;;;;;;;;;;4907335;29;20280;-89
2022/06/14 04:14:27;;;;;;;1.80;0.83;;;;;;;;;;4927304;29;20319;-89
2022/06/14 04:17:04;;;;;;;0.67;0.67;;;;;;;;;;4933978;29;20208;-88
2022/06/14 04:19:37;;;;;;;0.80;0.80;;;;;;;;;;4922604;29;20286;-89
2022/06/14 04:22:13;;;;;;;0.77;0.77;;;;;;;;;;4923785;29;20223;-89
2022/06/14 04:24:43;;;;;;;6.70;1.23;;;;;;;;;;4916901;29;20250;-89
2022/06/14 04:27:16;;;;;;;1.23;1.03;;;;;;;;;;4931135;29;20235;-89
2022/06/14 04:29:48;;;;;;;0.60;0.60;;;;;;;;;;4931461;28;20215;-89
2022/06/14 04:32:21;;;;;;;0.57;0.57;;;;;;;;;;4918792;29;20222;-89
2022/06/14 04:34:52;;;;;;;0.40;0.40;;;;;;;;;;4924069;29;20204;-89
2022/06/14 04:37:30;;;;;;;0.40;0.40;;;;;;;;;;4934521;29;20266;-89
2022/06/14 04:40:00;;;;;;;6.13;1.30;;;;;;;;;;4934691;29;20213;-89
2022/06/14 04:42:33;;;;;;;1.27;1.27;;;;;;;;;;4939278;29;20218;-89
2022/06/14 04:45:07;;;;;;;0.60;0.60;;;;;;;;;;4916980;29;20231;-87
2022/06/14 04:47:38;;;;;;;0.57;0.57;;;;;;;;;;4938055;29;20221;-87
2022/06/14 04:50:08;;;;;;;4.60;4.10;;;;;;;;;;4934852;28;20236;-87
2022/06/14 04:52:39;;;;;;;1.70;1.43;;;;;;;;;;4931530;29;20283;-87
2022/06/14 04:55:10;;;;;;;11.07;2.30;;;;;;;;;;4928952;29;20329;-87
2022/06/14 04:57:43;;;;;;;0.50;0.50;;;;;;;;;;4952187;28;20211;-90
2022/06/14 05:00:13;;;;;;;0.83;0.53;;;;;;;;;;4938508;28;20265;-89
2022/06/14 05:02:45;;;;;;;0.40;0.40;;;;;;;;;;4951941;28;20251;-89
2022/06/14 05:05:16;;;;;;;0.40;0.40;;;;;;;;;;4970693;28;20205;-89
2022/06/14 05:07:45;;;;;;;0.40;0.40;;;;;;;;;;4952848;28;20217;-89
2022/06/14 05:10:17;;;;;;;0.60;0.60;;;;;;;;;;4938375;28;20213;-89
2022/06/14 05:12:52;;;;;;;0.80;0.80;;;;;;;;;;4959984;28;20197;-90
2022/06/14 05:15:24;;;;;;;0.40;0.40;;;;;;;;;;4952002;28;20206;-89
2022/06/14 05:17:55;;;;;;;0.80;0.80;;;;;;;;;;4950275;28;20204;-90
2022/06/14 05:20:26;;;;;;;0.93;0.93;;;;;;;;;;4948313;28;20213;-88
2022/06/14 05:22:57;;;;;;;1.53;1.30;;;;;;;;;;4958274;28;20203;-88
2022/06/14 05:25:27;;;;;;;0.40;0.40;;;;;;;;;;4938881;29;20308;-88
2022/06/14 05:27:59;;;;;;;1.37;1.27;;;;;;;;;;4967223;28;20224;-88
2022/06/14 05:30:39;;;;;;;0.93;0.93;;;;;;;;;;4950156;28;20206;-88
2022/06/14 05:33:14;;;;;;;1.87;0.73;;;;;;;;;;4967686;28;20263;-88
2022/06/14 05:35:45;;;;;;;5.17;2.20;;;;;;;;;;4951576;28;20216;-86
2022/06/14 05:38:19;;;;;;;2.67;2.00;;;;;;;;;;4934838;29;20209;-87
2022/06/14 05:40:51;;;;;;;5.87;2.13;;;;;;;;;;4949689;28;20219;-87
2022/06/14 05:43:28;;;;;;;4.43;2.13;;;;;;;;;;4935207;28;20220;-87
2022/06/14 05:45:59;;;;;;;4.67;3.00;;;;;;;;;;4934106;29;20207;-87
2022/06/14 05:48:31;;;;;;;2.10;1.23;;;;;;;;;;4960548;28;20219;-88
2022/06/14 05:51:01;;;;;;;0.40;0.40;;;;;;;;;;4976987;28;20204;-88
2022/06/14 05:53:31;;;;;;;6.43;2.70;;;;;;;;;;4946111;28;20205;-87
2022/06/14 05:56:09;;;;;;;7.10;2.93;;;;;;;;;;4937441;29;20285;-87
2022/06/14 05:58:41;;;;;;;1.83;1.67;;;;;;;;;;4946993;28;20202;-86
2022/06/14 06:01:12;;;;;;;0.60;0.60;;;;;;;;;;4927417;29;20213;-86
2022/06/14 06:03:43;;;;;;;0.70;0.70;;;;;;;;;;4918671;29;20213;-86
2022/06/14 06:06:13;;;;;;;0.50;0.50;;;;;;;;;;4930397;29;20332;-87
2022/06/14 06:08:45;;;;;;;5.20;0.97;;;;;;;;;;4947130;29;20233;-86
2022/06/14 06:11:17;;;;;;;1.00;1.00;;;;;;;;;;4923801;29;20221;-87
2022/06/14 06:13:48;;;;;;;2.93;1.93;;;;;;;;;;4931105;29;20285;-88
2022/06/14 06:16:20;;;;;;;2.20;1.80;;;;;;;;;;4913545;29;20236;-87
2022/06/14 06:18:51;;;;;;;1.20;1.10;;;;;;;;;;4930727;29;20221;-86
2022/06/14 06:21:25;;;;;;;1.20;0.57;;;;;;;;;;4920928;29;20214;-86
2022/06/14 06:23:58;;;;;;;2.50;1.90;;;;;;;;;;4921450;29;20206;-87
2022/06/14 06:26:35;;;;;;;5.27;2.87;;;;;;;;;;4932679;29;20215;-86
2022/06/14 06:29:10;;;;;;;1.47;1.37;;;;;;;;;;4941972;28;20233;-89
2022/06/14 06:31:40;;;;;;;0.60;0.60;;;;;;;;;;4920568;29;20213;-89
2022/06/14 06:34:13;;;;;;;3.67;1.53;;;;;;;;;;4938866;28;20278;-91
2022/06/14 06:36:45;;;;;;;0.30;0.30;;;;;;;;;;4938426;28;20220;-91
2022/06/14 06:39:25;;;;;;;2.47;1.50;;;;;;;;;;4940773;28;20246;-91
2022/06/14 06:45:41;;;;;;;;;;;;;;;;;;;;;
2022/06/14 06:48:24;;;;;;;1.50;1.07;;;;;;;;;;4935098;28;20230;-86
2022/06/14 06:51:35;;;;;;;0.87;0.87;;;;;;;;;;4922132;29;20263;-86
2022/06/14 06:54:36;;;;;;;0.40;0.40;;;;;;;;;;4917212;29;20291;-88
2022/06/14 07:00:30;;;;;;;1.07;0.93;;;;;;;;;;4934669;28;20213;-86
2022/06/14 07:03:39;;;;;;;0.40;0.40;;;;;;;;;;4910502;29;20305;-87
2022/06/14 07:07:10;;;;;;;0.70;0.70;;;;;;;;;;4938622;28;20348;-86
2022/06/14 07:13:52;;;;;;;2.73;1.60;;;;;;;;;;4802788;29;20326;-87
2022/06/14 07:16:44;;;;;;;0.83;0.83;;;;;;;;;;4830135;29;20469;-88
2022/06/14 07:20:08;;;;;;;0.83;0.83;;;;;;;;;;4826689;29;20217;-86
2022/06/14 07:22:55;;;;;;;0.40;0.40;;;;;;;;;;4897129;29;20222;-83
2022/06/14 07:29:09;;;;;;;1.17;0.77;;;;;;;;;;4870517;29;20233;-87
2022/06/14 07:31:47;;;;;;;0.30;0.30;;;;;;;;;;4841728;29;20211;-86
2022/06/14 07:45:27;;;;;;;;;;;;;;;;;;;;;
2022/06/14 07:49:09;;;;;;;0.30;0.30;;;;;;;;;;4844371;29;20224;-87
2022/06/14 07:55:55;;;;;;;0.97;0.97;;;;;;;;;;4780248;29;20240;-86
2022/06/14 07:58:37;;;;;;;0.67;0.40;;;;;;;;;;4843529;29;20309;-85
2022/06/14 08:08:03;;;;;;;0.30;0.30;;;;;;;;;;4871506;29;20216;-90
2022/06/14 08:11:38;;;;;;;0.30;0.30;;;;;;;;;;4850883;29;20235;-89
2022/06/14 08:14:15;;;;;;;2.10;0.70;;;;;;;;;;4854367;29;20222;-85
2022/06/14 08:16:48;;;;;;;0.40;0.40;;;;;;;;;;4860780;29;20242;-84
2022/06/14 08:19:25;;;;;;;0.30;0.30;;;;;;;;;;4837097;29;20207;-87
2022/06/14 08:21:57;;;;;;;0.70;0.70;;;;;;;;;;4854760;29;20210;-86
2022/06/14 08:24:46;;;;;;;0.30;0.30;;;;;;;;;;4848132;29;20206;-87
2022/06/14 08:27:41;;;;;;;0.50;0.50;;;;;;;;;;4848506;29;20216;-89
2022/06/14 08:30:59;;;;;;;0.30;0.30;;;;;;;;;;4941568;28;20198;-90
2022/06/14 08:42:04;;;;;;;0.73;0.73;;;;;;;;;;4773569;29;20209;-88
2022/06/14 08:47:43;;;;;;;1.77;1.67;;;;;;;;;;4817888;29;20217;-86
2022/06/14 08:54:10;;;;;;;;;;;;;;;;;;;;;
2022/06/14 08:57:35;;;;;;;0.60;0.60;;;;;;;;;;4869006;29;20243;-87
2022/06/14 09:11:54;;;;;;;3.67;1.43;;;;;;;;;;4868794;28;20206;-88
2022/06/14 09:15:00;;;;;;;0.40;0.40;;;;;;;;;;4941296;28;20210;-86
2022/06/14 09:17:51;;;;;;;32.57;6.30;;;;;;;;;;4927262;28;20354;-87
2022/06/14 09:20:50;;;;;;;0.30;0.30;;;;;;;;;;4946248;28;20215;-88
2022/06/14 09:23:36;;;;;;;0.67;0.67;;;;;;;;;;4954344;28;20220;-87
2022/06/14 09:26:52;;;;;;;0.93;0.77;;;;;;;;;;4954728;28;20198;-89
2022/06/14 09:30:37;;;;;;;0.77;0.77;;;;;;;;;;4918937;28;20532;-89
2022/06/14 09:37:29;;;;;;;0.40;0.40;;;;;;;;;;4868699;29;20268;-89
2022/06/14 09:40:40;;;;;;;3.10;2.23;;;;;;;;;;4953945;28;20217;-88
2022/06/14 09:43:53;;;;;;;;;;;;;;;;;;;;;
2022/06/14 09:51:12;;;;;;;1.60;1.47;;;;;;;;;;4820771;29;20246;-86
2022/06/14 09:58:04;;;;;;;0.47;0.47;;;;;;;;;;4816832;29;20382;-86
2022/06/14 10:04:12;;;;;;;0.60;0.60;;;;;;;;;;4864817;29;20279;-85
2022/06/14 10:07:10;;;;;;;14.00;2.43;;;;;;;;;;4848114;29;20214;-87
2022/06/14 10:09:52;;;;;;;1.17;1.13;;;;;;;;;;4922746;29;20316;-86
2022/06/14 10:12:32;;;;;;;1.47;0.83;;;;;;;;;;4927715;29;20218;-85
2022/06/14 10:15:10;;;;;;;0.47;0.47;;;;;;;;;;4910312;29;20221;-86
2022/06/14 10:18:40;;;;;;;0.80;0.80;;;;;;;;;;4907373;29;20224;-84
2022/06/14 10:21:36;;;;;;;2.53;1.07;;;;;;;;;;4902949;29;20214;-84
2022/06/14 10:24:14;;;;;;;2.63;1.03;;;;;;;;;;4928653;29;20223;-87
2022/06/14 10:30:06;;;;;;;1.37;1.27;;;;;;;;;;4923520;29;20228;-88
2022/06/14 10:33:08;;;;;;;0.40;0.40;;;;;;;;;;4912475;29;20217;-87
2022/06/14 10:35:54;;;;;;;0.77;0.77;;;;;;;;;;4922422;29;20214;-86
2022/06/14 10:38:38;;;;;;;0.30;0.30;;;;;;;;;;4909753;29;20238;-86
2022/06/14 10:41:18;;;;;;;1.03;0.83;;;;;;;;;;4904793;29;20215;-88
2022/06/14 10:43:56;;;;;;;0.40;0.40;;;;;;;;;;4927021;29;20232;-83
2022/06/14 10:46:26;;;;;;;4.23;1.67;;;;;;;;;;4926290;29;20208;-82
2022/06/14 10:49:06;;;;;;;2.10;0.97;;;;;;;;;;4926775;29;20202;-87
2022/06/14 10:51:43;;;;;;;2.27;0.50;;;;;;;;;;4910398;29;20213;-88
2022/06/14 10:54:20;;;;;;;0.70;0.70;;;;;;;;;;4937156;28;20231;-89
2022/06/14 10:57:04;;;;;;;0.43;0.43;;;;;;;;;;4939966;28;20585;-89
2022/06/14 10:59:51;;;;;;;1.47;1.10;;;;;;;;;;4920989;29;20237;-85
2022/06/14 11:02:32;;;;;;;4.37;0.70;;;;;;;;;;4902497;29;20207;-87
2022/06/14 11:05:08;;;;;;;0.40;0.40;;;;;;;;;;4907518;29;20217;-86
2022/06/14 11:11:50;;;;;;;0.53;0.53;;;;;;;;;;4884325;29;20242;-86
2022/06/14 11:14:56;;;;;;;0.83;0.67;;;;;;;;;;4872415;29;20220;-85
2022/06/14 11:18:19;;;;;;;0.30;0.30;;;;;;;;;;4871026;29;20222;-86
2022/06/14 11:24:48;;;;;;;;;;;;;;;;;;;;;
2022/06/14 11:27:27;;;;;;;0.43;0.43;;;;;;;;;;4869741;29;20321;-85
2022/06/14 11:33:45;;;;;;;0.63;0.63;;;;;;;;;;4914533;29;20219;-86
2022/06/14 11:43:20;;;;;;;1.90;0.70;;;;;;;;;;4934659;28;20205;-91
2022/06/14 11:49:21;;;;;;;1.13;1.03;;;;;;;;;;4912128;29;20293;-89
2022/06/14 12:14:01;;;;;;;0.70;0.70;;;;;;;;;;4929635;29;20233;-85
2022/06/14 12:16:48;;;;;;;1.37;1.37;;;;;;;;;;4854357;29;20219;-89
2022/06/14 12:19:45;;;;;;;2.20;1.33;;;;;;;;;;4854202;29;20223;-90
2022/06/14 12:22:33;;;;;;;1.60;1.10;;;;;;;;;;4950040;28;20215;-87
2022/06/14 12:31:30;;;;;;;0.80;0.80;;;;;;;;;;4937479;28;20314;-85
2022/06/14 12:34:32;;;;;;;6.33;1.00;;;;;;;;;;4924812;29;20215;-87
2022/06/14 12:37:27;;;;;;;1.00;0.97;;;;;;;;;;4940071;28;20214;-87
2022/06/14 12:47:59;;;;;;;1.10;0.77;;;;;;;;;;4923611;29;20341;-88
2022/06/14 12:55:11;;;;;;;0.30;0.30;;;;;;;;;;4860482;29;20223;-87
2022/06/14 12:58:43;;;;;;;1.90;1.00;;;;;;;;;;4875512;29;20402;-87
2022/06/14 13:05:58;;;;;;;;;;;;;;;;;;;;;
2022/06/14 13:09:21;;;;;;;0.43;0.43;;;;;;;;;;4794722;29;20330;-86
2022/06/14 13:12:57;;;;;;;6.37;3.90;;;;;;;;;;4814592;29;20302;-86
2022/06/14 13:19:40;;;;;;;0.70;0.70;;;;;;;;;;4741312;30;20218;-89
2022/06/14 13:22:49;;;;;;;2.20;0.63;;;;;;;;;;4859663;29;20240;-92
2022/06/14 13:25:29;;;;;;;1.20;1.10;;;;;;;;;;4888839;29;20223;-86
2022/06/14 13:28:19;;;;;;;0.67;0.67;;;;;;;;;;4887946;29;20213;-92
2022/06/14 13:31:12;;;;;;;0.70;0.70;;;;;;;;;;4871018;29;20320;-88
2022/06/14 13:34:13;;;;;;;0.67;0.50;;;;;;;;;;4887513;29;20219;-89
2022/06/14 13:37:08;;;;;;;0.40;0.40;;;;;;;;;;4887500;29;21527;-89
2022/06/14 13:39:39;;;;;;;1.20;1.17;;;;;;;;;;4869113;29;20216;-87
2022/06/14 13:42:19;;;;;;;1.03;0.77;;;;;;;;;;4856526;29;20208;-88
2022/06/14 13:44:56;;;;;;;3.90;0.90;;;;;;;;;;4882447;29;20321;-88
2022/06/14 13:51:06;;;;;;;1.30;0.90;;;;;;;;;;4849052;29;20227;-84
2022/06/14 14:01:30;;;;;;;0.50;0.50;;;;;;;;;;4863912;28;20246;-89
2022/06/14 14:04:50;;;;;;;0.93;0.93;;;;;;;;;;4923951;28;20203;-89
2022/06/14 14:07:21;;;;;;;0.93;0.93;;;;;;;;;;4958273;28;20225;-84
2022/06/14 14:10:21;;;;;;;0.80;0.80;;;;;;;;;;4958455;28;20220;-83
2022/06/14 14:12:56;;;;;;;1.47;1.37;;;;;;;;;;4960394;28;20214;-86
2022/06/14 14:15:31;;;;;;;1.43;1.33;;;;;;;;;;4957457;28;20210;-85
2022/06/14 14:18:08;;;;;;;0.70;0.70;;;;;;;;;;4945595;28;20268;-87
2022/06/14 14:31:44;;;;;;;0.60;0.60;;;;;;;;;;4867383;29;20270;-86
2022/06/14 14:34:33;;;;;;;0.70;0.70;;;;;;;;;;4910023;28;20227;-88
2022/06/14 14:37:19;;;;;;;0.87;0.87;;;;;;;;;;4936328;29;20208;-92
2022/06/14 14:43:47;;;;;;;3.53;1.30;;;;;;;;;;4833987;29;20230;-84
2022/06/14 14:46:33;;;;;;;0.50;0.50;;;;;;;;;;4930347;28;20299;-88
2022/06/14 14:52:39;;;;;;;0.70;0.70;;;;;;;;;;4946055;28;20257;-90
2022/06/14 14:59:57;;;;;;;;;;;;;;;;;;;;;
2022/06/14 15:10:20;;;;;;;0.70;0.70;;;;;;;;;;4876728;29;20207;-88
2022/06/14 15:12:52;;;;;;;1.80;0.70;;;;;;;;;;4888939;29;20215;-88
2022/06/14 15:15:27;;;;;;;1.20;0.87;;;;;;;;;;4891124;29;20210;-87
2022/06/14 15:20:53;;;;;;;1.07;1.07;;;;;;;;;;4891237;29;20305;-88
2022/06/14 15:23:34;;;;;;;1.57;1.47;;;;;;;;;;4874055;29;20363;-89
2022/06/14 15:26:13;;;;;;;1.70;1.33;;;;;;;;;;4879459;29;20244;-88
2022/06/14 15:28:52;;;;;;;0.90;0.90;;;;;;;;;;4891046;29;20254;-87
2022/06/14 15:31:47;;;;;;;1.63;1.27;;;;;;;;;;4873029;29;20226;-88
2022/06/14 15:34:18;;;;;;;0.90;0.90;;;;;;;;;;4949270;29;20212;-85
2022/06/14 15:36:51;;;;;;;1.43;0.90;;;;;;;;;;4935512;29;20205;-88
2022/06/14 15:39:22;;;;;;;1.33;1.10;;;;;;;;;;4950205;29;20220;-89
2022/06/14 15:41:58;;;;;;;1.93;0.70;;;;;;;;;;4949344;28;20210;-88
2022/06/14 15:44:29;;;;;;;1.47;1.37;;;;;;;;;;4951369;29;20228;-89
2022/06/14 15:47:06;;;;;;;4.43;0.83;;;;;;;;;;4950547;29;20223;-88
2022/06/14 15:49:38;;;;;;;1.90;1.20;;;;;;;;;;4935314;29;20212;-89
2022/06/14 15:52:14;;;;;;;3.27;1.27;;;;;;;;;;4935139;29;20224;-87
2022/06/14 15:54:43;;;;;;;2.57;1.40;;;;;;;;;;4934530;29;20269;-88
2022/06/14 15:57:21;;;;;;;1.10;1.10;;;;;;;;;;4935055;29;20206;-89
2022/06/14 15:59:55;;;;;;;1.40;1.30;;;;;;;;;;4933899;29;20205;-88
2022/06/14 16:02:26;;;;;;;2.03;0.83;;;;;;;;;;4950699;28;20220;-88
2022/06/14 16:04:57;;;;;;;0.90;0.90;;;;;;;;;;4934718;29;20232;-89
2022/06/14 16:07:29;;;;;;;1.30;1.20;;;;;;;;;;4934993;29;20272;-91
2022/06/14 16:09:59;;;;;;;4.00;0.70;;;;;;;;;;4934652;29;20277;-89
2022/06/14 16:12:30;;;;;;;1.03;1.03;;;;;;;;;;4950990;28;20223;-90
2022/06/14 16:15:01;;;;;;;1.43;1.33;;;;;;;;;;4942788;29;20203;-90
2022/06/14 16:17:34;;;;;;;0.70;0.70;;;;;;;;;;4932826;29;20238;-89
2022/06/14 16:20:16;;;;;;;0.60;0.60;;;;;;;;;;4935298;29;20290;-88
2022/06/14 16:22:47;;;;;;;0.93;0.93;;;;;;;;;;4950436;28;20207;-89
2022/06/14 16:25:18;;;;;;;1.23;1.20;;;;;;;;;;4951505;28;20214;-88
2022/06/14 16:27:50;;;;;;;1.33;1.17;;;;;;;;;;4938469;29;20302;-88
2022/06/14 16:30:21;;;;;;;1.60;1.50;;;;;;;;;;4938213;29;20210;-89
2022/06/14 16:32:55;;;;;;;0.77;0.77;;;;;;;;;;4938473;29;20222;-89
2022/06/14 16:35:34;;;;;;;1.80;1.17;;;;;;;;;;4939723;29;20203;-89
2022/06/14 16:38:09;;;;;;;0.60;0.60;;;;;;;;;;4939568;29;20235;-89
2022/06/14 16:40:40;;;;;;;0.43;0.43;;;;;;;;;;4937938;29;20255;-89
2022/06/14 16:43:13;;;;;;;1.60;1.37;;;;;;;;;;4954457;28;20201;-89
2022/06/14 16:45:43;;;;;;;2.57;1.60;;;;;;;;;;4953518;28;20240;-89
2022/06/14 16:48:16;;;;;;;2.30;1.40;;;;;;;;;;4951919;29;20216;-89
2022/06/14 16:50:48;;;;;;;0.90;0.90;;;;;;;;;;4927042;29;20202;-89
2022/06/14 16:53:24;;;;;;;1.10;1.00;;;;;;;;;;4938249;29;20277;-89
2022/06/14 16:55:57;;;;;;;0.53;0.53;;;;;;;;;;4938293;29;20206;-89
2022/06/14 16:58:30;;;;;;;5.47;1.70;;;;;;;;;;4941534;29;20288;-89
2022/06/14 17:01:02;;;;;;;2.80;1.43;;;;;;;;;;4956516;29;20203;-89
2022/06/14 17:03:34;;;;;;;1.27;1.17;;;;;;;;;;4971319;28;20219;-89
2022/06/14 17:06:12;;;;;;;1.53;0.97;;;;;;;;;;4941263;29;20202;-89
2022/06/14 17:08:51;;;;;;;2.10;0.90;;;;;;;;;;4941188;29;20213;-90
2022/06/14 17:11:23;;;;;;;2.37;1.40;;;;;;;;;;4941107;29;20215;-89
2022/06/14 17:13:58;;;;;;;1.83;1.53;;;;;;;;;;4940833;29;20207;-89
2022/06/14 17:16:31;;;;;;;3.80;1.47;;;;;;;;;;4940570;29;20240;-89
2022/06/14 17:19:10;;;;;;;1.00;1.00;;;;;;;;;;4940878;29;20255;-89
2022/06/14 17:21:43;;;;;;;0.80;0.80;;;;;;;;;;4941498;29;20232;-90
2022/06/14 17:24:18;;;;;;;2.03;1.33;;;;;;;;;;4956749;28;20201;-90
2022/06/14 17:32:31;;;;;;;1.17;1.03;;;;;;;;;;4940695;29;20252;-88
2022/06/14 17:35:02;;;;;;;1.27;1.17;;;;;;;;;;4938051;29;20280;-90
2022/06/14 17:37:33;;;;;;;0.63;0.60;;;;;;;;;;4957948;28;20206;-90
2022/06/14 17:40:06;;;;;;;3.83;1.17;;;;;;;;;;4940509;29;20198;-89
2022/06/14 17:42:36;;;;;;;5.93;1.77;;;;;;;;;;4971887;28;20209;-89
2022/06/14 17:45:08;;;;;;;1.73;1.53;;;;;;;;;;4968672;28;20273;-88
2022/06/14 17:47:42;;;;;;;1.00;0.90;;;;;;;;;;4939758;29;20229;-90
2022/06/14 17:50:14;;;;;;;0.80;0.80;;;;;;;;;;4939596;29;20232;-89
2022/06/14 17:52:47;;;;;;;0.70;0.70;;;;;;;;;;4926476;29;20218;-89
2022/06/14 17:55:21;;;;;;;0.97;0.97;;;;;;;;;;4939895;29;20296;-90
2022/06/14 17:57:55;;;;;;;3.40;1.00;;;;;;;;;;4951898;29;20277;-90
2022/06/14 18:00:29;;;;;;;1.10;1.00;;;;;;;;;;4937249;29;20300;-90
2022/06/14 18:03:00;;;;;;;1.13;0.90;;;;;;;;;;4936372;29;20229;-90
2022/06/14 18:05:49;;;;;;;5.00;1.37;;;;;;;;;;4952743;28;20513;-90
2022/06/14 18:08:22;;;;;;;0.67;0.67;;;;;;;;;;4950269;29;20203;-90
2022/06/14 18:10:54;;;;;;;1.87;1.17;;;;;;;;;;4930586;29;20233;-90
2022/06/14 18:13:31;;;;;;;1.30;1.20;;;;;;;;;;4922381;29;20285;-88
2022/06/14 18:16:02;;;;;;;2.87;1.57;;;;;;;;;;4920721;29;20214;-90
2022/06/14 18:18:36;;;;;;;0.90;0.90;;;;;;;;;;4937440;29;20284;-89
2022/06/14 18:21:05;;;;;;;0.73;0.73;;;;;;;;;;4961818;28;20233;-87
2022/06/14 18:23:48;;;;;;;2.43;0.93;;;;;;;;;;4940304;29;20206;-89
2022/06/14 18:26:38;;;;;;;1.83;1.40;;;;;;;;;;4936768;29;20293;-90
2022/06/14 18:29:22;;;;;;;2.30;0.60;;;;;;;;;;4925896;29;20202;-90
2022/06/14 18:32:06;;;;;;;0.83;0.83;;;;;;;;;;4923395;29;20215;-90
2022/06/14 18:34:37;;;;;;;0.93;0.50;;;;;;;;;;4936159;29;20289;-90
2022/06/14 18:37:12;;;;;;;1.50;1.40;;;;;;;;;;4922062;29;20252;-90
2022/06/14 18:39:56;;;;;;;1.27;0.70;;;;;;;;;;4938551;29;20244;-90
2022/06/14 18:42:44;;;;;;;0.80;0.80;;;;;;;;;;4928828;29;20210;-90
2022/06/14 18:45:31;;;;;;;3.40;2.00;;;;;;;;;;4934801;29;20320;-90
2022/06/14 18:48:05;;;;;;;1.33;1.17;;;;;;;;;;4934593;29;20294;-90
2022/06/14 18:50:35;;;;;;;4.10;2.13;;;;;;;;;;4937159;29;20214;-90
2022/06/14 18:53:17;;;;;;;2.40;1.60;;;;;;;;;;4920026;29;20217;-90
2022/06/14 18:55:47;;;;;;;1.33;1.10;;;;;;;;;;4937474;29;20215;-90
2022/06/14 18:58:16;;;;;;;4.20;1.80;;;;;;;;;;4938830;29;20270;-90
2022/06/14 19:00:46;;;;;;;1.80;1.57;;;;;;;;;;4926074;29;20208;-90
2022/06/14 19:03:48;;;;;;;1.83;1.13;;;;;;;;;;4906900;29;20202;-90
2022/06/14 19:06:19;;;;;;;1.03;0.80;;;;;;;;;;4862905;29;20258;-89
2022/06/14 19:08:57;;;;;;;1.60;1.20;;;;;;;;;;4861839;29;20212;-90
2022/06/14 19:11:41;;;;;;;0.63;0.63;;;;;;;;;;4893822;29;20198;-89
2022/06/14 19:14:21;;;;;;;1.53;1.43;;;;;;;;;;4944949;29;20242;-89
2022/06/14 19:16:55;;;;;;;2.53;1.73;;;;;;;;;;4920497;29;20444;-89
2022/06/14 19:19:42;;;;;;;2.23;1.97;;;;;;;;;;4935720;29;20216;-89
2022/06/14 19:22:20;;;;;;;1.47;1.37;;;;;;;;;;4951486;28;20202;-89
2022/06/14 19:24:57;;;;;;;3.30;1.70;;;;;;;;;;4946915;29;20209;-89